createdAt,value
2017-05-17T00:00:21.187Z,981.11
2017-05-17T00:01:22.089Z,981.12
2017-05-17T00:02:22.790Z,981.09
2017-05-17T00:03:23.491Z,981.10
2017-05-17T00:04:24.190Z,981.10
2017-05-17T00:05:24.892Z,981.10
2017-05-17T00:06:25.847Z,981.09
2017-05-17T00:07:26.551Z,981.02
2017-05-17T00:08:27.253Z,981.06
2017-05-17T00:09:27.953Z,981.05
2017-05-17T00:10:28.655Z,981.03
2017-05-17T00:11:29.607Z,981.01
2017-05-17T00:12:30.314Z,981.02
2017-05-17T00:13:31.013Z,981.02
2017-05-17T00:14:31.715Z,981.02
2017-05-17T00:15:32.414Z,981.00
2017-05-17T00:16:33.367Z,981.01
2017-05-17T00:17:34.068Z,980.99
2017-05-17T00:18:34.765Z,980.97
2017-05-17T00:19:35.467Z,980.98
2017-05-17T00:20:36.169Z,980.99
2017-05-17T00:21:37.122Z,980.95
2017-05-17T00:22:37.819Z,981.00
2017-05-17T00:23:38.519Z,980.94
2017-05-17T00:24:39.221Z,980.98
2017-05-17T00:25:39.923Z,980.93
2017-05-17T00:26:40.874Z,980.93
2017-05-17T00:27:41.570Z,980.92
2017-05-17T00:28:42.271Z,980.92
2017-05-17T00:29:42.971Z,980.87
2017-05-17T00:30:43.672Z,980.89
2017-05-17T00:31:44.624Z,980.87
2017-05-17T00:32:45.325Z,980.85
2017-05-17T00:33:46.028Z,980.80
2017-05-17T00:34:46.729Z,980.77
2017-05-17T00:35:47.432Z,980.80
2017-05-17T00:36:48.390Z,980.78
2017-05-17T00:37:49.090Z,980.78
2017-05-17T00:38:49.799Z,980.78
2017-05-17T00:39:50.499Z,980.73
2017-05-17T00:40:51.201Z,980.76
2017-05-17T00:41:52.154Z,980.69
2017-05-17T00:42:52.854Z,980.67
2017-05-17T00:43:53.555Z,980.68
2017-05-17T00:44:54.266Z,980.69
2017-05-17T00:45:54.975Z,980.68
2017-05-17T00:46:55.932Z,980.63
2017-05-17T00:47:56.629Z,980.63
2017-05-17T00:48:57.329Z,980.65
2017-05-17T00:49:58.032Z,980.67
2017-05-17T00:50:58.734Z,980.60
2017-05-17T00:51:59.685Z,980.63
2017-05-17T00:53:00.384Z,980.61
2017-05-17T00:54:01.081Z,980.59
2017-05-17T00:55:01.779Z,980.57
2017-05-17T00:56:02.479Z,980.55
2017-05-17T00:57:03.430Z,980.53
2017-05-17T00:58:04.134Z,980.51
2017-05-17T00:59:04.837Z,980.47
2017-05-17T01:00:05.539Z,980.48
2017-05-17T01:01:06.237Z,980.44
2017-05-17T01:02:07.194Z,980.46
2017-05-17T01:03:07.894Z,980.49
2017-05-17T01:04:08.599Z,980.50
2017-05-17T01:05:09.299Z,980.50
2017-05-17T01:06:10.005Z,980.53
2017-05-17T01:07:10.952Z,980.52
2017-05-17T01:08:11.654Z,980.52
2017-05-17T01:09:12.364Z,980.51
2017-05-17T01:10:13.064Z,980.53
2017-05-17T01:11:13.764Z,980.52
2017-05-17T01:12:14.719Z,980.51
2017-05-17T01:13:15.419Z,980.50
2017-05-17T01:14:16.116Z,980.50
2017-05-17T01:15:16.819Z,980.49
2017-05-17T01:16:17.519Z,980.45
2017-05-17T01:17:18.474Z,980.46
2017-05-17T01:18:19.180Z,980.47
2017-05-17T01:19:19.883Z,980.46
2017-05-17T01:20:20.584Z,980.43
2017-05-17T01:21:21.287Z,980.46
2017-05-17T01:22:22.243Z,980.44
2017-05-17T01:23:22.943Z,980.43
2017-05-17T01:24:23.643Z,980.41
2017-05-17T01:25:24.346Z,980.39
2017-05-17T01:26:25.051Z,980.38
2017-05-17T01:27:26.001Z,980.40
2017-05-17T01:28:26.705Z,980.36
2017-05-17T01:29:27.408Z,980.35
2017-05-17T01:30:28.103Z,980.33
2017-05-17T01:31:28.805Z,980.31
2017-05-17T01:32:29.756Z,980.31
2017-05-17T01:33:30.457Z,980.30
2017-05-17T01:34:31.157Z,980.27
2017-05-17T01:35:31.857Z,980.24
2017-05-17T01:36:32.572Z,980.23
2017-05-17T01:37:33.523Z,980.22
2017-05-17T01:38:34.223Z,980.19
2017-05-17T01:39:34.923Z,980.21
2017-05-17T01:40:35.629Z,980.20
2017-05-17T01:41:36.331Z,980.20
2017-05-17T01:42:37.230Z,980.19
2017-05-17T01:43:37.927Z,980.16
2017-05-17T01:44:38.635Z,980.18
2017-05-17T01:45:39.339Z,980.17
2017-05-17T01:46:40.041Z,980.17
2017-05-17T01:47:40.945Z,980.15
2017-05-17T01:48:41.644Z,980.14
2017-05-17T01:49:42.345Z,980.13
2017-05-17T01:50:43.052Z,980.13
2017-05-17T01:51:43.761Z,980.11
2017-05-17T01:52:44.762Z,980.11
2017-05-17T01:53:45.463Z,980.11
2017-05-17T01:54:46.167Z,980.11
2017-05-17T01:55:46.865Z,980.14
2017-05-17T01:56:47.571Z,980.10
2017-05-17T01:57:48.471Z,980.12
2017-05-17T01:58:49.179Z,980.10
2017-05-17T01:59:49.885Z,980.08
2017-05-17T02:00:50.586Z,980.04
2017-05-17T02:01:51.287Z,980.04
2017-05-17T02:02:52.189Z,980.07
2017-05-17T02:03:52.891Z,980.07
2017-05-17T02:04:53.643Z,980.05
2017-05-17T02:05:54.350Z,980.03
2017-05-17T02:06:55.051Z,980.05
2017-05-17T02:07:56.011Z,980.03
2017-05-17T02:08:56.714Z,980.03
2017-05-17T02:09:57.412Z,980.01
2017-05-17T02:10:58.118Z,980.01
2017-05-17T02:11:58.816Z,979.98
2017-05-17T02:12:59.782Z,979.99
2017-05-17T02:14:00.482Z,980.02
2017-05-17T02:15:01.190Z,979.95
2017-05-17T02:16:01.889Z,979.95
2017-05-17T02:17:02.595Z,979.96
2017-05-17T02:18:03.543Z,979.96
2017-05-17T02:19:04.245Z,979.91
2017-05-17T02:20:04.944Z,979.94
2017-05-17T02:21:05.641Z,979.93
2017-05-17T02:22:06.346Z,979.96
2017-05-17T02:23:07.298Z,979.91
2017-05-17T02:24:08.009Z,979.89
2017-05-17T02:25:08.711Z,979.93
2017-05-17T02:26:09.412Z,979.90
2017-05-17T02:27:10.109Z,979.91
2017-05-17T02:28:11.007Z,979.87
2017-05-17T02:29:11.707Z,979.87
2017-05-17T02:30:12.410Z,979.89
2017-05-17T02:31:13.111Z,979.86
2017-05-17T02:32:13.808Z,979.85
2017-05-17T02:33:14.757Z,979.88
2017-05-17T02:34:15.459Z,979.89
2017-05-17T02:35:16.158Z,979.89
2017-05-17T02:36:16.860Z,979.86
2017-05-17T02:37:17.564Z,979.86
2017-05-17T02:38:18.465Z,979.88
2017-05-17T02:39:19.165Z,979.89
2017-05-17T02:40:19.862Z,979.83
2017-05-17T02:41:20.560Z,979.83
2017-05-17T02:42:21.262Z,979.82
2017-05-17T02:43:22.225Z,979.80
2017-05-17T02:44:22.928Z,979.81
2017-05-17T02:45:23.638Z,979.76
2017-05-17T02:46:24.338Z,979.78
2017-05-17T02:47:25.041Z,979.77
2017-05-17T02:48:25.997Z,979.77
2017-05-17T02:49:26.705Z,979.78
2017-05-17T02:50:27.410Z,979.79
2017-05-17T02:51:28.108Z,979.79
2017-05-17T02:52:28.850Z,979.78
2017-05-17T02:53:29.801Z,979.79
2017-05-17T02:54:30.498Z,979.78
2017-05-17T02:55:31.197Z,979.79
2017-05-17T02:56:31.898Z,979.81
2017-05-17T02:57:32.595Z,979.82
2017-05-17T02:58:33.553Z,979.82
2017-05-17T02:59:34.255Z,979.81
2017-05-17T03:00:34.956Z,979.83
2017-05-17T03:01:35.656Z,979.81
2017-05-17T03:02:36.352Z,979.81
2017-05-17T03:03:37.350Z,979.80
2017-05-17T03:04:38.046Z,979.78
2017-05-17T03:05:38.748Z,979.78
2017-05-17T03:06:39.449Z,979.79
2017-05-17T03:07:40.147Z,979.76
2017-05-17T03:08:41.046Z,979.75
2017-05-17T03:09:41.758Z,979.75
2017-05-17T03:10:42.456Z,979.72
2017-05-17T03:11:43.408Z,979.72
2017-05-17T03:12:44.118Z,979.76
2017-05-17T03:13:45.020Z,979.72
2017-05-17T03:14:45.722Z,979.71
2017-05-17T03:15:46.434Z,979.69
2017-05-17T03:16:47.136Z,979.68
2017-05-17T03:17:47.842Z,979.73
2017-05-17T03:18:49.028Z,979.75
2017-05-17T03:19:49.730Z,979.67
2017-05-17T03:20:50.433Z,979.68
2017-05-17T03:21:51.131Z,979.67
2017-05-17T03:22:51.835Z,979.66
2017-05-17T03:23:52.783Z,979.65
2017-05-17T03:24:53.484Z,979.64
2017-05-17T03:25:54.183Z,979.67
2017-05-17T03:26:55.562Z,979.62
2017-05-17T03:27:56.261Z,979.60
2017-05-17T03:28:57.213Z,979.58
2017-05-17T03:29:57.911Z,979.56
2017-05-17T03:30:58.612Z,979.61
2017-05-17T03:31:59.315Z,979.57
2017-05-17T03:33:00.018Z,979.54
2017-05-17T03:34:00.971Z,979.55
2017-05-17T03:35:01.671Z,979.52
2017-05-17T03:36:02.375Z,979.49
2017-05-17T03:37:03.075Z,979.50
2017-05-17T03:38:03.776Z,979.47
2017-05-17T03:39:04.727Z,979.52
2017-05-17T03:40:05.431Z,979.47
2017-05-17T03:41:06.131Z,979.51
2017-05-17T03:42:06.832Z,979.46
2017-05-17T03:43:07.534Z,979.50
2017-05-17T03:44:08.490Z,979.49
2017-05-17T03:45:09.195Z,979.46
2017-05-17T03:46:09.897Z,979.49
2017-05-17T03:47:10.602Z,979.50
2017-05-17T03:48:11.305Z,979.43
2017-05-17T03:49:12.256Z,979.47
2017-05-17T03:50:12.958Z,979.47
2017-05-17T03:51:13.661Z,979.47
2017-05-17T03:52:14.369Z,979.43
2017-05-17T03:53:15.072Z,979.41
2017-05-17T03:54:16.025Z,979.40
2017-05-17T03:55:16.731Z,979.41
2017-05-17T03:56:17.431Z,979.35
2017-05-17T03:57:18.134Z,979.37
2017-05-17T03:58:18.840Z,979.37
2017-05-17T03:59:19.806Z,979.36
2017-05-17T04:00:20.508Z,979.40
2017-05-17T04:01:21.207Z,979.41
2017-05-17T04:02:21.911Z,979.40
2017-05-17T04:03:22.616Z,979.43
2017-05-17T04:04:23.517Z,979.40
2017-05-17T04:05:24.218Z,979.44
2017-05-17T04:06:24.923Z,979.41
2017-05-17T04:07:25.629Z,979.42
2017-05-17T04:08:26.332Z,979.42
2017-05-17T04:09:27.287Z,979.41
2017-05-17T04:10:27.994Z,979.40
2017-05-17T04:11:28.699Z,979.39
2017-05-17T04:12:29.401Z,979.36
2017-05-17T04:13:30.116Z,979.42
2017-05-17T04:14:31.067Z,979.38
2017-05-17T04:15:31.767Z,979.37
2017-05-17T04:16:32.712Z,979.38
2017-05-17T04:17:33.414Z,979.39
2017-05-17T04:18:34.118Z,979.38
2017-05-17T04:19:35.023Z,979.37
2017-05-17T04:20:35.725Z,979.39
2017-05-17T04:21:36.431Z,979.42
2017-05-17T04:22:37.131Z,979.39
2017-05-17T04:23:37.833Z,979.37
2017-05-17T04:24:38.735Z,979.36
2017-05-17T04:25:39.436Z,979.39
2017-05-17T04:26:40.138Z,979.34
2017-05-17T04:27:40.842Z,979.32
2017-05-17T04:28:41.550Z,979.32
2017-05-17T04:29:42.500Z,979.36
2017-05-17T04:30:43.203Z,979.31
2017-05-17T04:31:43.905Z,979.31
2017-05-17T04:32:44.606Z,979.36
2017-05-17T04:33:45.309Z,979.33
2017-05-17T04:34:46.264Z,979.35
2017-05-17T04:35:46.968Z,979.30
2017-05-17T04:36:47.675Z,979.34
2017-05-17T04:37:48.377Z,979.30
2017-05-17T04:38:49.080Z,979.37
2017-05-17T04:39:49.983Z,979.36
2017-05-17T04:40:50.690Z,979.33
2017-05-17T04:41:51.394Z,979.32
2017-05-17T04:42:52.099Z,979.31
2017-05-17T04:43:52.798Z,979.31
2017-05-17T04:44:53.703Z,979.26
2017-05-17T04:45:54.412Z,979.28
2017-05-17T04:46:55.122Z,979.29
2017-05-17T04:47:55.823Z,979.26
2017-05-17T04:48:56.527Z,979.30
2017-05-17T04:49:57.427Z,979.24
2017-05-17T04:50:58.130Z,979.23
2017-05-17T04:51:58.832Z,979.24
2017-05-17T04:52:59.536Z,979.22
2017-05-17T04:54:00.246Z,979.27
2017-05-17T04:55:01.199Z,979.24
2017-05-17T04:56:01.904Z,979.17
2017-05-17T04:57:02.605Z,979.23
2017-05-17T04:58:03.307Z,979.21
2017-05-17T04:59:04.009Z,979.19
2017-05-17T05:00:04.916Z,979.23
2017-05-17T05:01:05.617Z,979.18
2017-05-17T05:02:06.323Z,979.22
2017-05-17T05:03:07.028Z,979.17
2017-05-17T05:04:07.737Z,979.17
2017-05-17T05:05:08.690Z,979.21
2017-05-17T05:06:09.391Z,979.16
2017-05-17T05:07:10.092Z,979.10
2017-05-17T05:08:10.797Z,979.14
2017-05-17T05:09:11.503Z,979.11
2017-05-17T05:10:12.455Z,979.11
2017-05-17T05:11:13.156Z,979.10
2017-05-17T05:12:13.868Z,979.10
2017-05-17T05:13:14.811Z,979.06
2017-05-17T05:14:15.511Z,979.09
2017-05-17T05:15:16.464Z,979.10
2017-05-17T05:16:17.169Z,979.10
2017-05-17T05:17:17.870Z,979.13
2017-05-17T05:18:18.571Z,979.11
2017-05-17T05:19:19.271Z,979.11
2017-05-17T05:21:35.519Z,979.09
2017-05-17T05:22:36.223Z,979.10
2017-05-17T05:23:36.931Z,979.08
2017-05-17T05:24:37.638Z,979.10
2017-05-17T05:25:38.593Z,979.07
2017-05-17T05:26:39.319Z,979.10
2017-05-17T05:27:40.032Z,979.07
2017-05-17T05:28:40.738Z,979.03
2017-05-17T05:29:41.441Z,979.05
2017-05-17T05:30:42.397Z,978.96
2017-05-17T05:31:43.103Z,979.01
2017-05-17T05:32:43.806Z,979.02
2017-05-17T05:33:44.514Z,978.98
2017-05-17T05:34:45.222Z,979.01
2017-05-17T05:35:46.173Z,979.04
2017-05-17T05:36:46.876Z,979.03
2017-05-17T05:37:47.585Z,978.99
2017-05-17T05:38:48.514Z,978.99
2017-05-17T05:39:49.221Z,979.02
2017-05-17T05:40:50.176Z,979.04
2017-05-17T05:41:50.884Z,979.06
2017-05-17T05:42:51.584Z,979.02
2017-05-17T05:43:52.285Z,979.00
2017-05-17T05:44:53.037Z,979.03
2017-05-17T05:45:53.996Z,978.99
2017-05-17T05:46:54.699Z,979.00
2017-05-17T05:47:55.403Z,979.04
2017-05-17T05:48:56.109Z,979.07
2017-05-17T05:49:56.817Z,979.02
2017-05-17T05:50:57.780Z,978.97
2017-05-17T05:51:58.500Z,979.03
2017-05-17T05:52:59.203Z,979.01
2017-05-17T05:53:59.910Z,979.01
2017-05-17T05:55:00.617Z,979.00
2017-05-17T05:56:01.573Z,978.97
2017-05-17T05:57:02.275Z,978.97
2017-05-17T05:58:02.995Z,979.02
2017-05-17T05:59:03.705Z,978.97
2017-05-17T06:00:04.411Z,978.95
2017-05-17T06:01:05.313Z,978.96
2017-05-17T06:02:06.023Z,978.95
2017-05-17T06:03:06.726Z,978.95
2017-05-17T06:04:07.429Z,978.95
2017-05-17T06:05:08.188Z,978.98
2017-05-17T06:06:09.197Z,978.94
2017-05-17T06:07:09.902Z,978.90
2017-05-17T06:08:10.607Z,978.87
2017-05-17T06:09:11.322Z,978.90
2017-05-17T06:10:12.027Z,978.86
2017-05-17T06:11:12.981Z,978.88
2017-05-17T06:12:13.683Z,978.87
2017-05-17T06:13:14.391Z,978.87
2017-05-17T06:14:15.097Z,978.88
2017-05-17T06:15:15.805Z,978.84
2017-05-17T06:16:16.759Z,978.86
2017-05-17T06:17:17.463Z,978.83
2017-05-17T06:18:18.163Z,978.81
2017-05-17T06:19:18.871Z,978.85
2017-05-17T06:20:19.574Z,978.89
2017-05-17T06:21:20.485Z,978.87
2017-05-17T06:22:21.191Z,978.85
2017-05-17T06:23:21.899Z,978.85
2017-05-17T06:24:22.643Z,978.85
2017-05-17T06:25:23.354Z,978.84
2017-05-17T06:26:24.266Z,978.84
2017-05-17T06:27:24.969Z,978.88
2017-05-17T06:28:25.679Z,978.85
2017-05-17T06:29:26.385Z,978.85
2017-05-17T06:30:27.091Z,978.84
2017-05-17T06:31:27.999Z,978.82
2017-05-17T06:32:28.705Z,978.82
2017-05-17T06:33:29.412Z,978.83
2017-05-17T06:34:30.119Z,978.82
2017-05-17T06:35:30.827Z,978.80
2017-05-17T06:36:31.732Z,978.79
2017-05-17T06:37:32.455Z,978.83
2017-05-17T06:38:33.166Z,978.84
2017-05-17T06:39:33.869Z,978.86
2017-05-17T06:40:34.581Z,978.86
2017-05-17T06:41:35.486Z,978.87
2017-05-17T06:42:36.193Z,978.88
2017-05-17T06:43:36.900Z,978.90
2017-05-17T06:44:37.608Z,978.92
2017-05-17T06:45:38.320Z,978.89
2017-05-17T06:46:39.275Z,978.92
2017-05-17T06:47:39.984Z,978.94
2017-05-17T06:48:40.696Z,978.91
2017-05-17T06:49:41.404Z,978.90
2017-05-17T06:50:42.110Z,978.94
2017-05-17T06:51:43.065Z,978.97
2017-05-17T06:52:43.773Z,978.92
2017-05-17T06:53:44.484Z,978.94
2017-05-17T06:54:45.190Z,978.93
2017-05-17T06:55:45.897Z,978.91
2017-05-17T06:56:46.852Z,978.87
2017-05-17T06:57:47.560Z,978.89
2017-05-17T06:58:48.266Z,978.88
2017-05-17T06:59:48.985Z,978.89
2017-05-17T07:00:49.697Z,978.88
2017-05-17T07:01:50.603Z,978.83
2017-05-17T07:02:51.312Z,978.85
2017-05-17T07:03:52.024Z,978.83
2017-05-17T07:04:52.730Z,978.85
2017-05-17T07:05:53.436Z,978.84
2017-05-17T07:06:54.398Z,978.85
2017-05-17T07:07:55.105Z,978.86
2017-05-17T07:08:55.811Z,978.83
2017-05-17T07:09:56.520Z,978.81
2017-05-17T07:10:57.228Z,978.82
2017-05-17T07:11:58.189Z,978.81
2017-05-17T07:12:58.900Z,978.80
2017-05-17T07:13:59.609Z,978.84
2017-05-17T07:15:00.315Z,978.77
2017-05-17T07:16:01.025Z,978.80
2017-05-17T07:17:01.986Z,978.77
2017-05-17T07:18:02.699Z,978.78
2017-05-17T07:19:03.411Z,978.78
2017-05-17T07:20:04.119Z,978.75
2017-05-17T07:21:04.825Z,978.72
2017-05-17T07:22:05.786Z,978.74
2017-05-17T07:23:06.503Z,978.75
2017-05-17T07:24:07.209Z,978.75
2017-05-17T07:25:07.920Z,978.73
2017-05-17T07:26:08.639Z,978.72
2017-05-17T07:27:09.545Z,978.74
2017-05-17T07:28:10.253Z,978.67
2017-05-17T07:29:10.966Z,978.71
2017-05-17T07:30:11.672Z,978.69
2017-05-17T07:31:12.380Z,978.68
2017-05-17T07:32:13.338Z,978.68
2017-05-17T07:33:14.047Z,978.70
2017-05-17T07:34:14.754Z,978.65
2017-05-17T07:35:15.463Z,978.64
2017-05-17T07:36:16.173Z,978.66
2017-05-17T07:37:17.141Z,978.59
2017-05-17T07:38:17.854Z,978.61
2017-05-17T07:39:18.562Z,978.57
2017-05-17T07:40:19.277Z,978.58
2017-05-17T07:41:19.992Z,978.51
2017-05-17T07:42:20.906Z,978.51
2017-05-17T07:43:21.616Z,978.50
2017-05-17T07:44:22.328Z,978.49
2017-05-17T07:45:23.039Z,978.49
2017-05-17T07:46:23.754Z,978.45
2017-05-17T07:47:24.719Z,978.44
2017-05-17T07:48:25.426Z,978.43
2017-05-17T07:49:26.135Z,978.44
2017-05-17T07:50:26.843Z,978.45
2017-05-17T07:51:27.551Z,978.40
2017-05-17T07:52:28.512Z,978.39
2017-05-17T07:53:29.218Z,978.40
2017-05-17T07:54:29.929Z,978.37
2017-05-17T07:55:30.645Z,978.37
2017-05-17T07:56:31.354Z,978.34
2017-05-17T07:57:32.315Z,978.37
2017-05-17T07:58:33.028Z,978.34
2017-05-17T07:59:33.740Z,978.36
2017-05-17T08:00:34.450Z,978.31
2017-05-17T08:01:35.158Z,978.32
2017-05-17T08:02:36.119Z,978.32
2017-05-17T08:03:36.826Z,978.32
2017-05-17T08:04:37.533Z,978.31
2017-05-17T08:05:38.240Z,978.32
2017-05-17T08:06:38.947Z,978.35
2017-05-17T08:07:39.907Z,978.30
2017-05-17T08:08:40.614Z,978.30
2017-05-17T08:09:41.322Z,978.30
2017-05-17T08:10:42.035Z,978.31
2017-05-17T08:11:42.741Z,978.32
2017-05-17T08:12:43.703Z,978.28
2017-05-17T08:13:44.413Z,978.22
2017-05-17T08:14:45.122Z,978.26
2017-05-17T08:15:45.831Z,978.23
2017-05-17T08:16:46.547Z,978.26
2017-05-17T08:17:47.505Z,978.21
2017-05-17T08:18:48.212Z,978.23
2017-05-17T08:19:48.921Z,978.21
2017-05-17T08:20:49.631Z,978.22
2017-05-17T08:21:50.344Z,978.25
2017-05-17T08:22:51.303Z,978.26
2017-05-17T08:23:52.018Z,978.21
2017-05-17T08:24:52.726Z,978.20
2017-05-17T08:25:53.437Z,978.21
2017-05-17T08:26:54.145Z,978.15
2017-05-17T08:27:55.107Z,978.16
2017-05-17T08:28:55.817Z,978.17
2017-05-17T08:29:56.525Z,978.16
2017-05-17T08:30:57.237Z,978.15
2017-05-17T08:31:57.945Z,978.13
2017-05-17T08:32:58.904Z,978.11
2017-05-17T08:33:59.616Z,978.17
2017-05-17T08:35:00.324Z,978.17
2017-05-17T08:36:01.031Z,978.11
2017-05-17T08:37:01.737Z,978.07
2017-05-17T08:38:02.696Z,978.08
2017-05-17T08:39:03.406Z,978.07
2017-05-17T08:40:04.118Z,978.06
2017-05-17T08:41:04.839Z,978.00
2017-05-17T08:42:05.547Z,978.02
2017-05-17T08:43:06.510Z,978.02
2017-05-17T08:44:07.230Z,978.03
2017-05-17T08:45:07.942Z,978.00
2017-05-17T08:46:08.649Z,977.97
2017-05-17T08:47:09.354Z,977.94
2017-05-17T08:48:10.323Z,977.94
2017-05-17T08:49:11.038Z,977.92
2017-05-17T08:50:11.756Z,977.89
2017-05-17T08:51:12.467Z,977.86
2017-05-17T08:52:13.180Z,977.84
2017-05-17T08:53:14.142Z,977.80
2017-05-17T08:54:14.853Z,977.85
2017-05-17T08:55:15.567Z,977.83
2017-05-17T08:56:16.277Z,977.80
2017-05-17T08:57:16.988Z,977.82
2017-05-17T08:58:17.949Z,977.82
2017-05-17T08:59:18.664Z,977.76
2017-05-17T09:00:19.385Z,977.76
2017-05-17T09:01:20.096Z,977.81
2017-05-17T09:02:20.809Z,977.80
2017-05-17T09:03:21.770Z,977.73
2017-05-17T09:04:22.483Z,977.78
2017-05-17T09:05:23.204Z,977.72
2017-05-17T09:06:23.914Z,977.71
2017-05-17T09:07:24.623Z,977.68
2017-05-17T09:08:25.581Z,977.72
2017-05-17T09:09:26.307Z,977.69
2017-05-17T09:10:27.024Z,977.66
2017-05-17T09:11:27.730Z,977.65
2017-05-17T09:12:28.447Z,977.62
2017-05-17T09:13:29.409Z,977.58
2017-05-17T09:14:30.121Z,977.56
2017-05-17T09:15:30.826Z,977.50
2017-05-17T09:16:31.540Z,977.51
2017-05-17T09:17:32.259Z,977.50
2017-05-17T09:18:33.223Z,977.46
2017-05-17T09:19:33.933Z,977.47
2017-05-17T09:20:34.643Z,977.46
2017-05-17T09:21:35.359Z,977.46
2017-05-17T09:22:36.068Z,977.45
2017-05-17T09:23:37.026Z,977.39
2017-05-17T09:24:37.746Z,977.41
2017-05-17T09:25:38.460Z,977.40
2017-05-17T09:26:39.166Z,977.33
2017-05-17T09:27:39.876Z,977.36
2017-05-17T09:28:40.837Z,977.36
2017-05-17T09:29:41.545Z,977.35
2017-05-17T09:30:42.260Z,977.35
2017-05-17T09:31:42.968Z,977.37
2017-05-17T09:32:43.675Z,977.32
2017-05-17T09:33:44.638Z,977.30
2017-05-17T09:34:45.349Z,977.26
2017-05-17T09:35:46.065Z,977.27
2017-05-17T09:36:46.774Z,977.27
2017-05-17T09:37:47.485Z,977.30
2017-05-17T09:38:48.493Z,977.25
2017-05-17T09:39:49.200Z,977.27
2017-05-17T09:40:49.908Z,977.22
2017-05-17T09:41:50.621Z,977.18
2017-05-17T09:42:51.331Z,977.20
2017-05-17T09:43:52.302Z,977.18
2017-05-17T09:44:53.017Z,977.18
2017-05-17T09:45:53.728Z,977.12
2017-05-17T09:46:54.442Z,977.12
2017-05-17T09:47:55.151Z,977.07
2017-05-17T09:48:56.115Z,977.11
2017-05-17T09:49:56.824Z,977.07
2017-05-17T09:50:57.540Z,977.02
2017-05-17T09:51:58.252Z,977.05
2017-05-17T09:52:58.963Z,977.00
2017-05-17T09:53:59.924Z,976.98
2017-05-17T09:55:00.635Z,977.06
2017-05-17T09:56:01.346Z,977.06
2017-05-17T09:57:02.058Z,977.05
2017-05-17T09:58:02.775Z,977.09
2017-05-17T09:59:03.753Z,977.06
2017-05-17T10:00:04.474Z,977.09
2017-05-17T10:01:05.185Z,977.07
2017-05-17T10:02:05.896Z,977.12
2017-05-17T10:03:06.604Z,977.07
2017-05-17T10:04:07.560Z,977.09
2017-05-17T10:05:08.266Z,977.05
2017-05-17T10:06:08.974Z,977.08
2017-05-17T10:07:09.687Z,977.09
2017-05-17T10:08:10.400Z,977.04
2017-05-17T10:09:11.365Z,977.01
2017-05-17T10:10:12.076Z,976.97
2017-05-17T10:11:12.785Z,977.00
2017-05-17T10:12:13.505Z,976.97
2017-05-17T10:13:14.231Z,976.98
2017-05-17T10:14:15.192Z,976.97
2017-05-17T10:15:15.904Z,976.94
2017-05-17T10:16:16.612Z,976.91
2017-05-17T10:17:17.324Z,976.90
2017-05-17T10:18:18.038Z,976.89
2017-05-17T10:19:19.002Z,976.90
2017-05-17T10:20:19.721Z,976.89
2017-05-17T10:21:20.434Z,976.88
2017-05-17T10:22:21.146Z,976.90
2017-05-17T10:23:21.856Z,976.89
2017-05-17T10:24:22.817Z,976.87
2017-05-17T10:25:23.530Z,976.87
2017-05-17T10:26:24.241Z,976.82
2017-05-17T10:27:24.953Z,976.83
2017-05-17T10:28:25.667Z,976.86
2017-05-17T10:29:26.626Z,976.88
2017-05-17T10:30:27.333Z,976.84
2017-05-17T10:31:28.042Z,976.80
2017-05-17T10:32:28.752Z,976.76
2017-05-17T10:33:29.464Z,976.79
2017-05-17T10:34:30.480Z,976.79
2017-05-17T10:35:31.211Z,976.76
2017-05-17T10:36:31.924Z,976.78
2017-05-17T10:37:32.634Z,976.72
2017-05-17T10:38:33.343Z,976.65
2017-05-17T10:39:34.306Z,976.70
2017-05-17T10:40:35.018Z,976.65
2017-05-17T10:41:35.731Z,976.64
2017-05-17T10:42:36.445Z,976.68
2017-05-17T10:43:37.162Z,976.59
2017-05-17T10:44:38.128Z,976.61
2017-05-17T10:45:38.842Z,976.64
2017-05-17T10:46:39.555Z,976.62
2017-05-17T10:47:40.261Z,976.57
2017-05-17T10:48:40.972Z,976.55
2017-05-17T10:49:41.935Z,976.51
2017-05-17T10:50:42.645Z,976.50
2017-05-17T10:51:43.358Z,976.44
2017-05-17T10:52:44.070Z,976.46
2017-05-17T10:53:44.784Z,976.47
2017-05-17T10:54:45.745Z,976.43
2017-05-17T10:55:46.456Z,976.49
2017-05-17T10:56:47.166Z,976.48
2017-05-17T10:57:47.877Z,976.44
2017-05-17T10:58:48.591Z,976.46
2017-05-17T10:59:49.552Z,976.42
2017-05-17T11:00:50.262Z,976.41
2017-05-17T11:01:50.975Z,976.40
2017-05-17T11:02:51.690Z,976.42
2017-05-17T11:03:52.400Z,976.39
2017-05-17T11:04:53.366Z,976.34
2017-05-17T11:05:54.083Z,976.33
2017-05-17T11:06:54.805Z,976.31
2017-05-17T11:07:55.515Z,976.34
2017-05-17T11:08:56.229Z,976.28
2017-05-17T11:09:57.196Z,976.31
2017-05-17T11:10:57.912Z,976.23
2017-05-17T11:11:58.625Z,976.24
2017-05-17T11:12:59.339Z,976.23
2017-05-17T11:14:00.052Z,976.23
2017-05-17T11:15:01.015Z,976.17
2017-05-17T11:16:01.731Z,976.20
2017-05-17T11:17:02.445Z,976.21
2017-05-17T11:18:03.155Z,976.18
2017-05-17T11:19:03.862Z,976.18
2017-05-17T11:20:04.821Z,976.17
2017-05-17T11:21:05.535Z,976.15
2017-05-17T11:22:06.247Z,976.11
2017-05-17T11:23:06.959Z,976.15
2017-05-17T11:24:07.671Z,976.13
2017-05-17T11:25:08.632Z,976.14
2017-05-17T11:26:09.350Z,976.13
2017-05-17T11:27:10.073Z,976.13
2017-05-17T11:28:10.799Z,976.14
2017-05-17T11:29:11.511Z,976.19
2017-05-17T11:30:12.477Z,976.14
2017-05-17T11:31:13.201Z,976.13
2017-05-17T11:32:13.914Z,976.19
2017-05-17T11:33:14.627Z,976.20
2017-05-17T11:34:15.339Z,976.24
2017-05-17T11:35:16.304Z,976.22
2017-05-17T11:36:17.019Z,976.26
2017-05-17T11:37:17.739Z,976.19
2017-05-17T11:38:18.453Z,976.21
2017-05-17T11:39:19.166Z,976.24
2017-05-17T11:40:20.140Z,976.19
2017-05-17T11:41:20.855Z,976.22
2017-05-17T11:42:21.571Z,976.23
2017-05-17T11:43:22.287Z,976.18
2017-05-17T11:44:23.007Z,976.19
2017-05-17T11:45:23.971Z,976.23
2017-05-17T11:46:24.689Z,976.19
2017-05-17T11:47:25.408Z,976.07
2017-05-17T11:48:26.128Z,976.13
2017-05-17T11:49:26.845Z,976.16
2017-05-17T11:50:27.817Z,976.16
2017-05-17T11:51:28.543Z,976.15
2017-05-17T11:52:29.259Z,976.14
2017-05-17T11:53:29.973Z,976.17
2017-05-17T11:54:30.694Z,976.15
2017-05-17T11:55:31.662Z,976.17
2017-05-17T11:56:32.378Z,976.18
2017-05-17T11:57:33.100Z,976.14
2017-05-17T11:58:33.815Z,976.14
2017-05-17T11:59:34.534Z,976.13
2017-05-17T12:00:35.506Z,976.12
2017-05-17T12:01:36.230Z,976.10
2017-05-17T12:02:36.951Z,976.02
2017-05-17T12:03:37.673Z,976.01
2017-05-17T12:04:38.392Z,975.97
2017-05-17T12:05:39.358Z,976.00
2017-05-17T12:06:40.074Z,976.02
2017-05-17T12:07:40.793Z,976.01
2017-05-17T12:08:41.511Z,975.99
2017-05-17T12:09:42.229Z,976.02
2017-05-17T12:10:43.195Z,975.98
2017-05-17T12:11:43.913Z,975.97
2017-05-17T12:12:44.632Z,975.92
2017-05-17T12:13:45.350Z,975.85
2017-05-17T12:14:46.074Z,975.92
2017-05-17T12:15:47.046Z,975.87
2017-05-17T12:16:47.764Z,975.84
2017-05-17T12:17:48.485Z,975.79
2017-05-17T12:18:49.206Z,975.81
2017-05-17T12:19:49.935Z,975.76
2017-05-17T12:20:50.905Z,975.77
2017-05-17T12:21:51.623Z,975.78
2017-05-17T12:22:52.357Z,975.83
2017-05-17T12:23:53.077Z,975.77
2017-05-17T12:24:53.798Z,975.75
2017-05-17T12:25:54.770Z,975.76
2017-05-17T12:26:55.495Z,975.72
2017-05-17T12:27:56.222Z,975.68
2017-05-17T12:28:56.945Z,975.70
2017-05-17T12:29:57.667Z,975.68
2017-05-17T12:30:58.639Z,975.64
2017-05-17T12:31:59.406Z,975.63
2017-05-17T12:33:00.136Z,975.63
2017-05-17T12:34:00.854Z,975.68
2017-05-17T12:35:01.576Z,975.68
2017-05-17T12:36:02.548Z,975.62
2017-05-17T12:37:03.271Z,975.55
2017-05-17T12:38:03.992Z,975.53
2017-05-17T12:39:04.715Z,975.49